createdAt,value
2018-07-16T00:01:03.629Z,17.83
2018-07-16T00:03:33.438Z,17.81
2018-07-16T00:06:03.252Z,17.76
2018-07-16T00:08:33.090Z,17.74
2018-07-16T00:11:02.950Z,17.57
2018-07-16T00:13:33.160Z,17.58
2018-07-16T00:16:02.974Z,17.87
2018-07-16T00:18:33.073Z,17.94
2018-07-16T00:21:02.853Z,18.03
2018-07-16T00:23:33.039Z,18.22
2018-07-16T00:26:02.812Z,18.32
2018-07-16T00:28:32.621Z,18.33
2018-07-16T00:31:02.590Z,18.29
2018-07-16T00:33:32.420Z,18.27
2018-07-16T00:36:02.354Z,18.33
2018-07-16T00:38:32.130Z,18.44
2018-07-16T00:41:01.914Z,18.36
2018-07-16T00:43:31.700Z,18.49
2018-07-16T00:46:01.875Z,18.32
2018-07-16T00:48:31.886Z,18.34
2018-07-16T00:51:02.064Z,18.19
2018-07-16T00:53:31.932Z,18.19
2018-07-16T00:56:01.767Z,18.17
2018-07-16T00:58:31.604Z,18.19
2018-07-16T01:01:01.516Z,18.21
2018-07-16T01:03:31.824Z,18.04
2018-07-16T01:06:01.641Z,18.07
2018-07-16T01:08:31.450Z,18.08
2018-07-16T01:11:01.263Z,18.12
2018-07-16T01:13:30.718Z,18.20
2018-07-16T01:16:00.498Z,18.24
2018-07-16T01:18:30.346Z,18.05
2018-07-16T01:21:00.142Z,17.99
2018-07-16T01:23:29.956Z,17.93
2018-07-16T01:25:59.728Z,17.73
2018-07-16T01:28:30.478Z,17.79
2018-07-16T01:31:00.242Z,17.84
2018-07-16T01:33:30.366Z,17.85
2018-07-16T01:36:00.418Z,17.74
2018-07-16T01:38:30.316Z,17.53
2018-07-16T01:41:00.206Z,17.56
2018-07-16T01:44:21.366Z,17.64
2018-07-16T01:46:51.204Z,17.72
2018-07-16T01:49:21.071Z,17.69
2018-07-16T01:51:50.946Z,17.63
2018-07-16T01:54:20.802Z,17.62
2018-07-16T01:56:50.737Z,17.61
2018-07-16T01:59:20.526Z,17.67
2018-07-16T02:01:50.394Z,17.59
2018-07-16T02:04:20.208Z,17.61
2018-07-16T02:06:50.200Z,17.51
2018-07-16T02:09:20.110Z,17.54
2018-07-16T02:11:50.320Z,17.55
2018-07-16T02:14:20.168Z,17.55
2018-07-16T02:16:50.034Z,17.52
2018-07-16T02:19:19.907Z,17.54
2018-07-16T02:21:50.194Z,17.52
2018-07-16T02:24:20.325Z,17.46
2018-07-16T02:26:50.512Z,17.46
2018-07-16T02:29:20.826Z,17.51
2018-07-16T02:31:50.624Z,17.38
2018-07-16T02:34:20.466Z,17.33
2018-07-16T02:36:50.319Z,17.36
2018-07-16T02:39:20.122Z,17.36
2018-07-16T02:41:50.177Z,17.38
2018-07-16T02:44:20.105Z,17.29
2018-07-16T02:46:49.905Z,17.31
2018-07-16T02:49:20.195Z,17.26
2018-07-16T02:51:50.048Z,17.22
2018-07-16T02:54:20.073Z,17.24
2018-07-16T02:57:24.742Z,17.31
2018-07-16T02:59:54.625Z,17.43
2018-07-16T03:02:24.421Z,17.50
2018-07-16T03:04:54.281Z,17.43
2018-07-16T03:07:24.487Z,17.34
2018-07-16T03:09:54.507Z,17.26
2018-07-16T03:12:24.373Z,17.11
2018-07-16T03:14:54.324Z,17.04
2018-07-16T03:17:24.753Z,17.06
2018-07-16T03:19:54.547Z,16.97
2018-07-16T03:22:24.680Z,17.04
2018-07-16T03:24:54.532Z,17.09
2018-07-16T03:27:24.388Z,17.05
2018-07-16T03:29:54.259Z,16.96
2018-07-16T03:32:24.307Z,16.90
2018-07-16T03:34:54.182Z,17.15
2018-07-16T03:37:24.355Z,17.19
2018-07-16T03:39:54.196Z,17.21
2018-07-16T03:42:23.963Z,17.32
2018-07-16T03:44:53.853Z,17.42
2018-07-16T03:47:23.675Z,17.39
2018-07-16T03:49:53.471Z,17.41
2018-07-16T03:52:23.719Z,17.40
2018-07-16T03:54:53.600Z,17.54
2018-07-16T03:57:23.811Z,17.45
2018-07-16T03:59:53.630Z,17.39
2018-07-16T04:02:23.500Z,17.49
2018-07-16T04:05:05.132Z,17.40
2018-07-16T04:07:35.379Z,17.38
2018-07-16T04:10:05.187Z,17.37
2018-07-16T04:12:35.003Z,17.39
2018-07-16T04:15:05.584Z,17.50
2018-07-16T04:17:35.775Z,17.59
2018-07-16T04:20:05.996Z,17.52
2018-07-16T04:22:35.834Z,17.65
2018-07-16T04:25:05.733Z,17.63
2018-07-16T04:27:35.637Z,17.70
2018-07-16T04:30:05.901Z,17.65
2018-07-16T04:32:35.737Z,17.68
2018-07-16T04:35:05.614Z,17.67
2018-07-16T04:37:35.470Z,17.64
2018-07-16T04:40:05.778Z,17.74
2018-07-16T04:42:35.603Z,17.87
2018-07-16T04:45:05.431Z,17.96
2018-07-16T04:47:35.291Z,17.96
2018-07-16T04:50:05.447Z,18.03
2018-07-16T04:52:35.325Z,17.85
2018-07-16T04:55:05.751Z,17.83
2018-07-16T04:57:35.812Z,17.99
2018-07-16T05:00:06.511Z,18.14
2018-07-16T05:02:36.643Z,18.13
2018-07-16T05:05:06.527Z,18.47
2018-07-16T05:07:36.415Z,18.72
2018-07-16T05:10:06.466Z,18.86
2018-07-16T05:12:36.886Z,19.01
2018-07-16T05:15:07.431Z,19.19
2018-07-16T05:17:37.808Z,19.35
2018-07-16T05:20:08.919Z,19.44
2018-07-16T05:22:39.332Z,19.50
2018-07-16T05:25:09.694Z,19.73
2018-07-16T05:27:40.231Z,19.55
2018-07-16T05:30:10.699Z,19.26
2018-07-16T05:32:41.374Z,18.48
2018-07-16T05:35:11.264Z,18.02
2018-07-16T05:37:41.107Z,18.10
2018-07-16T05:40:10.905Z,19.19
2018-07-16T05:42:41.327Z,21.20
2018-07-16T05:45:12.214Z,21.83
2018-07-16T05:47:42.613Z,22.70
2018-07-16T05:50:13.576Z,23.37
2018-07-16T05:52:43.971Z,23.79
2018-07-16T05:55:14.372Z,24.41
2018-07-16T05:57:44.848Z,24.34
2018-07-16T06:00:15.244Z,24.34
2018-07-16T06:02:45.644Z,24.62
2018-07-16T06:05:16.207Z,24.10
2018-07-16T06:07:46.617Z,24.16
2018-07-16T06:10:17.295Z,24.50
2018-07-16T06:12:47.671Z,24.33
2018-07-16T06:15:18.117Z,24.25
2018-07-16T06:17:48.524Z,24.21
2018-07-16T06:20:18.946Z,24.19
2018-07-16T06:22:49.567Z,24.27
2018-07-16T06:25:19.906Z,24.24
2018-07-16T06:27:50.284Z,24.21
2018-07-16T06:30:20.660Z,24.17
2018-07-16T06:32:51.020Z,24.08
2018-07-16T06:35:21.390Z,23.66
2018-07-16T06:37:51.814Z,23.40
2018-07-16T06:40:22.249Z,23.69
2018-07-16T06:42:53.324Z,23.80
2018-07-16T06:45:23.702Z,24.02
2018-07-16T06:47:54.155Z,23.99
2018-07-16T06:50:24.577Z,23.85
2018-07-16T06:52:55.246Z,23.83
2018-07-16T06:55:25.993Z,24.02
2018-07-16T06:57:56.333Z,24.03
2018-07-16T07:00:27.368Z,24.07
2018-07-16T07:02:58.088Z,24.11
2018-07-16T07:05:28.390Z,24.17
2018-07-16T07:07:59.012Z,24.30
2018-07-16T07:10:29.336Z,24.37
2018-07-16T07:12:59.660Z,24.50
2018-07-16T07:15:30.362Z,24.59
2018-07-16T07:18:00.839Z,24.86
2018-07-16T07:20:31.108Z,24.87
2018-07-16T07:23:01.569Z,24.95
2018-07-16T07:25:31.930Z,24.71
2018-07-16T07:28:02.576Z,24.91
2018-07-16T07:30:33.282Z,25.16
2018-07-16T07:33:03.720Z,25.36
2018-07-16T07:35:34.160Z,25.62
2018-07-16T07:38:04.739Z,25.22
2018-07-16T07:41:23.028Z,24.87
2018-07-16T07:43:53.381Z,24.37
2018-07-16T07:46:24.157Z,24.04
2018-07-16T07:48:54.784Z,24.28
2018-07-16T07:51:25.127Z,23.95
2018-07-16T07:53:55.644Z,24.30
2018-07-16T07:56:26.005Z,24.83
2018-07-16T07:58:56.357Z,24.82
2018-07-16T08:01:27.003Z,25.09
2018-07-16T08:03:57.697Z,25.32
2018-07-16T08:06:28.027Z,24.03
2018-07-16T08:08:58.427Z,24.36
2018-07-16T08:11:28.751Z,24.04
2018-07-16T08:13:59.263Z,23.70
2018-07-16T08:16:29.847Z,24.02
2018-07-16T08:19:00.498Z,23.86
2018-07-16T08:21:31.401Z,24.69
2018-07-16T08:24:02.007Z,25.06
2018-07-16T08:26:32.754Z,25.57
2018-07-16T08:29:03.350Z,25.65
2018-07-16T08:31:33.671Z,25.68
2018-07-16T08:34:04.287Z,25.65
2018-07-16T08:36:34.833Z,25.68
2018-07-16T08:39:06.249Z,25.58
2018-07-16T08:41:36.702Z,25.87
2018-07-16T08:44:07.633Z,26.25
2018-07-16T08:46:38.029Z,26.50
2018-07-16T08:49:08.756Z,26.27
2018-07-16T08:51:39.139Z,25.90
2018-07-16T08:54:09.497Z,26.04
2018-07-16T08:56:39.869Z,26.10
2018-07-16T08:59:10.387Z,25.99
2018-07-16T09:01:41.147Z,26.33
2018-07-16T09:04:11.518Z,26.47
2018-07-16T09:06:42.061Z,25.91
2018-07-16T09:09:12.402Z,25.48
2018-07-16T09:11:42.771Z,25.85
2018-07-16T09:14:13.145Z,25.83
2018-07-16T09:16:44.421Z,25.62
2018-07-16T09:19:14.962Z,26.03
2018-07-16T09:21:45.411Z,26.23
2018-07-16T09:24:15.829Z,26.33
2018-07-16T09:26:46.180Z,26.56
2018-07-16T09:29:16.724Z,26.27
2018-07-16T09:31:47.515Z,26.05
2018-07-16T09:34:17.845Z,26.13
2018-07-16T09:36:48.165Z,26.29
2018-07-16T09:39:18.556Z,26.88
2018-07-16T09:41:48.950Z,26.35
2018-07-16T09:44:19.720Z,26.81
2018-07-16T09:46:50.246Z,27.26
2018-07-16T09:49:20.963Z,27.09
2018-07-16T09:51:51.301Z,27.20
2018-07-16T09:54:21.792Z,27.22
2018-07-16T09:56:52.146Z,27.20
2018-07-16T09:59:22.752Z,27.49
2018-07-16T10:01:58.256Z,27.53
2018-07-16T10:04:29.080Z,27.58
2018-07-16T10:06:59.464Z,27.97
2018-07-16T10:09:30.889Z,27.13
2018-07-16T10:12:01.651Z,27.51
2018-07-16T10:14:33.695Z,26.73
2018-07-16T10:17:04.381Z,26.22
2018-07-16T10:19:34.770Z,26.58
2018-07-16T10:22:05.189Z,27.20
2018-07-16T10:24:35.589Z,27.79
2018-07-16T10:27:06.067Z,27.31
2018-07-16T10:29:36.472Z,27.75
2018-07-16T10:32:07.121Z,27.51
2018-07-16T10:34:37.555Z,28.06
2018-07-16T10:37:07.923Z,28.27
2018-07-16T10:39:38.304Z,28.70
2018-07-16T10:42:08.992Z,28.95
2018-07-16T10:44:39.127Z,28.87
2018-07-16T10:47:09.484Z,29.17
2018-07-16T10:49:39.852Z,29.02
2018-07-16T10:52:10.627Z,29.08
2018-07-16T10:54:41.825Z,29.19
2018-07-16T10:57:12.431Z,29.31
2018-07-16T10:59:42.955Z,29.73
2018-07-16T11:02:13.818Z,28.80
2018-07-16T11:04:43.965Z,28.45
2018-07-16T11:07:14.331Z,28.93
2018-07-16T11:09:44.457Z,28.60
2018-07-16T11:12:14.531Z,28.77
2018-07-16T11:14:44.673Z,29.04
2018-07-16T11:17:14.870Z,29.22
2018-07-16T11:19:45.036Z,29.40
2018-07-16T11:22:15.747Z,29.33
2018-07-16T11:24:45.855Z,29.54
2018-07-16T11:27:17.275Z,29.05
2018-07-16T11:29:47.676Z,28.71
2018-07-16T11:32:17.783Z,28.18
2018-07-16T11:34:48.462Z,27.78
2018-07-16T11:37:18.840Z,27.45
2018-07-16T11:39:49.215Z,27.62
2018-07-16T11:42:19.629Z,27.52
2018-07-16T11:44:49.987Z,27.37
2018-07-16T11:47:20.315Z,27.25
2018-07-16T11:49:50.715Z,27.59
2018-07-16T11:52:21.109Z,28.48
2018-07-16T11:54:51.801Z,29.27
2018-07-16T11:57:22.295Z,29.66
2018-07-16T11:59:52.445Z,29.75
2018-07-16T12:02:22.470Z,29.66
2018-07-16T12:04:52.571Z,29.84
2018-07-16T12:07:22.657Z,29.03
2018-07-16T12:09:52.733Z,28.92
2018-07-16T12:12:23.255Z,29.38
2018-07-16T12:14:53.335Z,29.03
2018-07-16T12:17:23.459Z,29.51
2018-07-16T12:19:53.468Z,29.21
2018-07-16T12:22:23.551Z,29.05
2018-07-16T12:24:53.653Z,29.41
2018-07-16T12:27:23.955Z,29.80
2018-07-16T12:29:54.116Z,29.33
2018-07-16T12:32:24.145Z,29.88
2018-07-16T12:34:54.572Z,30.48
2018-07-16T12:37:24.636Z,30.77
2018-07-16T12:39:54.994Z,30.93
2018-07-16T12:42:25.292Z,30.77
2018-07-16T12:44:55.688Z,30.93
2018-07-16T12:47:26.368Z,31.00
2018-07-16T12:49:56.784Z,31.28
2018-07-16T12:52:26.840Z,31.45
2018-07-16T12:54:56.889Z,31.36
2018-07-16T12:57:26.970Z,29.00
2018-07-16T12:59:57.082Z,28.50
2018-07-16T13:02:27.803Z,27.96
2018-07-16T13:04:58.156Z,27.19
2018-07-16T13:07:28.626Z,27.53
2018-07-16T13:09:58.999Z,27.81
2018-07-16T13:12:29.412Z,28.38
2018-07-16T13:14:59.834Z,28.50
2018-07-16T13:17:30.269Z,28.36
2018-07-16T13:20:00.680Z,28.39
2018-07-16T13:22:31.046Z,28.33
2018-07-16T13:25:01.228Z,28.50
2018-07-16T13:27:31.607Z,28.40
2018-07-16T13:30:01.665Z,28.71
2018-07-16T13:32:32.047Z,29.14
2018-07-16T13:35:02.133Z,29.71
2018-07-16T13:37:32.863Z,30.34
2018-07-16T13:40:02.985Z,30.18
2018-07-16T13:42:33.297Z,29.29
2018-07-16T13:45:03.827Z,29.27
2018-07-16T13:47:33.916Z,29.01
2018-07-16T13:50:04.384Z,29.63
2018-07-16T13:52:34.808Z,29.94
2018-07-16T13:55:05.214Z,28.97
2018-07-16T13:57:36.378Z,29.14
2018-07-16T14:00:07.098Z,29.11
2018-07-16T14:02:37.224Z,28.61
2018-07-16T14:05:07.266Z,28.69
2018-07-16T14:07:37.746Z,28.61
2018-07-16T14:10:08.532Z,28.05
2018-07-16T14:12:38.977Z,27.66
2018-07-16T14:15:09.388Z,27.47
2018-07-16T14:17:39.904Z,27.47
2018-07-16T14:20:10.630Z,27.43
2018-07-16T14:22:40.984Z,27.38
2018-07-16T14:25:11.431Z,27.25
2018-07-16T14:27:42.030Z,27.32
2018-07-16T14:30:12.421Z,27.71
2018-07-16T14:32:42.800Z,27.84
2018-07-16T14:35:13.541Z,28.04
2018-07-16T14:37:44.037Z,28.48
2018-07-16T14:40:14.464Z,28.55
2018-07-16T14:42:44.836Z,27.55
2018-07-16T14:45:15.269Z,27.49
2018-07-16T14:47:46.157Z,27.45
2018-07-16T14:50:16.691Z,27.77
2018-07-16T14:52:47.258Z,27.51
2018-07-16T14:55:18.358Z,27.28
2018-07-16T14:57:48.728Z,27.65
2018-07-16T15:00:19.690Z,27.58
2018-07-16T15:02:50.049Z,27.87
2018-07-16T15:05:20.427Z,27.64
2018-07-16T15:07:50.755Z,27.48
2018-07-16T15:10:21.112Z,27.71
2018-07-16T15:12:51.821Z,27.73
2018-07-16T15:15:22.183Z,27.44
2018-07-16T15:17:52.690Z,27.61
2018-07-16T15:20:23.282Z,27.82
2018-07-16T15:22:54.151Z,27.85
2018-07-16T15:25:24.470Z,27.65
2018-07-16T15:27:54.886Z,27.62
2018-07-16T15:30:25.369Z,27.60
2018-07-16T15:32:55.734Z,27.51
2018-07-16T15:35:26.412Z,27.58
2018-07-16T15:37:56.980Z,27.79
2018-07-16T15:40:27.372Z,27.52
2018-07-16T15:42:57.836Z,27.48
2018-07-16T15:45:28.278Z,27.56
2018-07-16T15:47:58.671Z,27.51
2018-07-16T15:50:29.049Z,27.65
2018-07-16T15:52:59.541Z,27.49
2018-07-16T15:55:30.069Z,27.68
2018-07-16T15:58:00.435Z,27.91
2018-07-16T16:00:30.995Z,28.06
2018-07-16T16:03:01.324Z,28.12
2018-07-16T16:05:31.697Z,27.96
2018-07-16T16:08:02.317Z,28.24
2018-07-16T16:10:32.775Z,28.28
2018-07-16T16:13:03.196Z,28.14
2018-07-16T16:15:33.599Z,28.02
2018-07-16T16:18:03.757Z,28.15
2018-07-16T16:20:34.485Z,28.23
2018-07-16T16:23:04.778Z,28.20
2018-07-16T16:25:35.673Z,28.62
2018-07-16T16:28:06.101Z,28.88
2018-07-16T16:30:36.233Z,28.80
2018-07-16T16:33:06.590Z,28.54
2018-07-16T16:35:37.759Z,28.09
2018-07-16T16:38:08.237Z,27.78
2018-07-16T16:40:38.932Z,27.70
2018-07-16T16:43:09.400Z,27.69
2018-07-16T16:45:40.163Z,27.72
2018-07-16T16:48:11.160Z,27.70
2018-07-16T16:50:41.571Z,27.79
2018-07-16T16:53:11.916Z,27.70
2018-07-16T16:55:42.320Z,27.70
2018-07-16T16:58:12.696Z,27.51
2018-07-16T17:00:43.136Z,27.45
2018-07-16T17:03:15.051Z,27.47
2018-07-16T17:05:45.461Z,27.45
2018-07-16T17:08:16.546Z,27.43
2018-07-16T17:10:46.960Z,27.31
2018-07-16T17:13:17.422Z,27.12
2018-07-16T17:15:47.862Z,27.05
2018-07-16T17:18:18.384Z,26.80
2018-07-16T17:20:49.486Z,26.93
2018-07-16T17:23:19.965Z,26.82
2018-07-16T17:25:50.502Z,26.59
2018-07-16T17:28:21.264Z,26.46
2018-07-16T17:30:51.842Z,26.38
2018-07-16T17:34:51.983Z,26.47
2018-07-16T17:37:22.458Z,26.36
2018-07-16T17:39:53.082Z,26.29
2018-07-16T17:42:23.881Z,26.24
2018-07-16T17:44:55.187Z,26.26
2018-07-16T17:47:27.678Z,26.22
2018-07-16T17:49:58.043Z,26.19
2018-07-16T17:52:28.423Z,26.15
2018-07-16T17:54:58.782Z,26.05
2018-07-16T17:57:29.257Z,26.06
2018-07-16T17:59:59.726Z,25.89
2018-07-16T18:02:30.107Z,25.89
2018-07-16T18:05:00.541Z,25.95
2018-07-16T18:07:30.898Z,25.94
2018-07-16T18:10:01.465Z,25.88
2018-07-16T18:12:31.833Z,25.88
2018-07-16T18:15:02.319Z,25.84
2018-07-16T18:17:33.060Z,25.71
2018-07-16T18:20:03.435Z,25.66
2018-07-16T18:22:33.793Z,25.65
2018-07-16T18:25:04.223Z,25.63
2018-07-16T18:27:34.953Z,25.53
2018-07-16T18:30:06.231Z,25.56
2018-07-16T18:32:36.683Z,25.59
2018-07-16T18:35:07.222Z,25.46
2018-07-16T18:37:37.704Z,25.42
2018-07-16T18:40:08.233Z,25.45
2018-07-16T18:42:38.871Z,25.57
2018-07-16T18:45:10.041Z,25.25
2018-07-16T18:47:40.505Z,25.22
2018-07-16T18:50:11.005Z,25.26
2018-07-16T18:52:42.503Z,24.86
2018-07-16T18:55:12.891Z,24.58
2018-07-16T18:57:43.810Z,24.40
2018-07-16T19:00:14.429Z,24.35
2018-07-16T19:02:45.083Z,24.39
2018-07-16T19:05:15.523Z,24.47
2018-07-16T19:07:46.232Z,24.40
2018-07-16T19:10:16.602Z,24.05
2018-07-16T19:12:47.019Z,23.78
2018-07-16T19:15:26.166Z,23.66
2018-07-16T19:17:57.541Z,23.58
2018-07-16T19:20:28.622Z,23.65
2018-07-16T19:22:59.819Z,23.62
2018-07-16T19:25:30.575Z,23.42
2018-07-16T19:28:00.966Z,23.30
2018-07-16T19:30:32.825Z,23.34
2018-07-16T19:33:03.270Z,23.47
2018-07-16T19:35:33.650Z,23.64
2018-07-16T19:38:04.239Z,23.58
2018-07-16T19:40:34.629Z,23.37
2018-07-16T19:43:05.154Z,23.17
2018-07-16T19:45:35.527Z,23.19
2018-07-16T19:48:05.912Z,23.22
2018-07-16T19:50:36.264Z,23.21
2018-07-16T19:53:06.990Z,23.15
2018-07-16T19:55:37.480Z,23.10
2018-07-16T19:58:08.011Z,23.03
2018-07-16T20:00:38.467Z,23.01
2018-07-16T20:03:09.050Z,23.04
2018-07-16T20:05:39.474Z,23.06
2018-07-16T20:08:09.930Z,22.96
2018-07-16T20:10:40.564Z,22.85
2018-07-16T20:13:11.077Z,22.86
2018-07-16T20:15:41.830Z,22.89
2018-07-16T20:18:13.760Z,22.79
2018-07-16T20:20:59.320Z,22.77
2018-07-16T20:23:31.698Z,22.67
2018-07-16T20:26:02.590Z,22.70
2018-07-16T20:28:33.024Z,22.78
2018-07-16T20:31:03.474Z,22.72
2018-07-16T20:33:34.251Z,22.49
2018-07-16T20:36:04.824Z,22.39
2018-07-16T20:38:35.512Z,22.38
2018-07-16T20:41:05.941Z,22.51
2018-07-16T20:43:36.402Z,22.55
2018-07-16T20:46:06.928Z,22.61
2018-07-16T20:48:37.324Z,22.65
2018-07-16T20:51:08.464Z,22.58
2018-07-16T20:53:39.234Z,22.60
2018-07-16T20:56:09.644Z,22.52
2018-07-16T20:58:40.164Z,22.46
2018-07-16T21:01:10.690Z,22.43
2018-07-16T21:03:41.121Z,22.38
2018-07-16T21:06:11.817Z,22.44
2018-07-16T21:08:42.505Z,22.35
2018-07-16T21:11:12.901Z,22.23
2018-07-16T21:13:43.290Z,22.17
2018-07-16T21:16:13.709Z,22.01
2018-07-16T21:18:44.087Z,22.03
2018-07-16T21:21:14.521Z,21.97
2018-07-16T21:23:44.933Z,22.00
2018-07-16T21:26:15.689Z,21.98
2018-07-16T21:28:46.187Z,22.00
2018-07-16T21:31:16.709Z,21.88
2018-07-16T21:33:47.423Z,21.79
2018-07-16T21:36:17.857Z,21.63
2018-07-16T21:38:48.611Z,21.68
2018-07-16T21:41:19.384Z,21.68
2018-07-16T21:43:49.813Z,21.75
2018-07-16T21:46:20.266Z,21.82
2018-07-16T21:48:50.784Z,21.69
2018-07-16T21:51:21.449Z,21.59
2018-07-16T21:53:51.967Z,21.59
2018-07-16T21:56:23.723Z,21.45
2018-07-16T22:02:30.572Z,21.20
2018-07-16T22:05:01.072Z,21.30
2018-07-16T22:07:31.446Z,21.24
2018-07-16T22:10:01.877Z,21.25
2018-07-16T22:12:32.537Z,21.25
2018-07-16T22:15:03.275Z,21.24
2018-07-16T22:17:33.668Z,21.15
2018-07-16T22:20:04.273Z,21.19
2018-07-16T22:22:34.699Z,21.10
2018-07-16T22:25:04.801Z,21.18
2018-07-16T22:27:35.334Z,21.09
2018-07-16T22:30:05.880Z,21.06
2018-07-16T22:32:37.094Z,21.03
2018-07-16T22:35:07.571Z,21.05
2018-07-16T22:37:38.043Z,21.14
2018-07-16T22:40:09.370Z,21.11
2018-07-16T22:42:39.828Z,20.96
2018-07-16T22:45:11.027Z,20.81
2018-07-16T22:47:41.434Z,20.83
2018-07-16T22:50:11.839Z,20.94
2018-07-16T22:52:42.247Z,20.70
2018-07-16T22:55:12.872Z,20.05
2018-07-16T22:57:43.564Z,19.90
2018-07-16T23:00:14.918Z,19.73
2018-07-16T23:02:45.297Z,19.53
2018-07-16T23:05:15.680Z,19.48
2018-07-16T23:07:46.101Z,19.52
2018-07-16T23:10:18.026Z,19.65
2018-07-16T23:12:48.492Z,19.50
2018-07-16T23:15:18.884Z,19.67
2018-07-16T23:17:49.278Z,19.53
2018-07-16T23:20:19.700Z,19.51
2018-07-16T23:22:54.304Z,19.25
2018-07-16T23:25:24.209Z,19.12
2018-07-16T23:27:54.153Z,19.05
2018-07-16T23:30:23.966Z,19.12
2018-07-16T23:32:53.809Z,19.20
2018-07-16T23:35:24.328Z,19.42
2018-07-16T23:37:54.160Z,19.32
2018-07-16T23:40:24.262Z,19.48
2018-07-16T23:42:54.667Z,19.55
2018-07-16T23:45:25.178Z,19.62
2018-07-16T23:47:55.560Z,19.65
2018-07-16T23:50:26.505Z,19.73
2018-07-16T23:52:57.012Z,19.79
2018-07-16T23:55:27.573Z,19.95
2018-07-16T23:57:58.510Z,20.00
